Time;durP1;ratioP1;P1;durP2;ratioP2;P2;SDS_P1;SDS_P2;PMS_P1;PMS_P2;Temp;Humidity;BMP_temperature;BMP_pressure;BME280_temperature;BME280_humidity;BME280_pressure;Samples;Min_cycle;Max_cycle;Signal;HPM_P1;HPM_P2
2021/05/27 00:01:12;;;;;;;8.55;7.50;;;;;;;19.80;56.12;100774.49;1853103;77;22174;-58
2021/05/27 00:03:47;;;;;;;7.92;7.08;;;;;;;19.81;56.17;100774.41;1805822;77;22578;-58
2021/05/27 00:06:33;;;;;;;8.78;7.42;;;;;;;19.83;56.07;100773.02;1728466;83;21134;-59
2021/05/27 00:09:06;;;;;;;8.20;6.90;;;;;;;19.90;55.76;100762.02;1802636;77;22179;-57
2021/05/27 00:11:39;;;;;;;7.33;6.62;;;;;;;19.95;55.40;100765.80;1827381;77;22143;-58
2021/05/27 00:14:12;;;;;;;8.03;7.03;;;;;;;19.95;55.35;100760.94;1823228;77;22601;-58
2021/05/27 00:16:45;;;;;;;9.10;6.85;;;;;;;19.88;55.49;100759.88;1845569;77;22155;-58
2021/05/27 00:19:18;;;;;;;8.55;7.47;;;;;;;19.76;55.74;100757.72;1804145;77;22182;-58
2021/05/27 00:21:51;;;;;;;8.80;7.90;;;;;;;19.67;56.15;100756.34;1822496;77;22597;-58
2021/05/27 00:24:25;;;;;;;9.33;8.43;;;;;;;19.60;56.59;100748.20;1820355;77;22221;-58
2021/05/27 00:26:58;;;;;;;11.73;8.58;;;;;;;19.50;57.08;100750.86;1831361;77;22578;-58
2021/05/27 00:29:31;;;;;;;8.78;7.87;;;;;;;19.19;58.17;100759.75;1830929;77;22127;-58
2021/05/27 00:32:06;;;;;;;7.85;6.95;;;;;;;19.45;57.51;100754.59;1834368;77;22175;-58
2021/05/27 00:34:52;;;;;;;8.05;7.00;;;;;;;19.46;57.13;100758.16;1761799;80;21178;-58
2021/05/27 00:37:25;;;;;;;8.05;7.17;;;;;;;19.39;57.17;100759.34;1805889;77;22175;-58
2021/05/27 00:39:58;;;;;;;7.67;6.87;;;;;;;19.45;56.82;100754.59;1844373;77;22566;-58
2021/05/27 00:42:31;;;;;;;8.25;6.97;;;;;;;19.43;56.74;100744.94;1828399;77;22174;-58
2021/05/27 00:45:08;;;;;;;9.65;7.62;;;;;;;19.40;56.67;100743.28;1830204;77;22582;-58
2021/05/27 00:47:41;;;;;;;8.40;7.05;;;;;;;19.40;56.42;100743.28;1841492;77;22175;-58
2021/05/27 00:50:27;;;;;;;8.00;6.85;;;;;;;19.36;56.36;100747.47;1777827;80;21587;-59
2021/05/27 00:53:00;;;;;;;7.10;6.30;;;;;;;19.35;56.23;100743.95;1839771;77;22165;-58
2021/05/27 00:55:57;;;;;;;7.78;6.95;;;;;;;19.28;56.11;100745.14;1836025;77;22643;-58
2021/05/27 00:58:43;;;;;;;8.63;6.92;;;;;;;19.20;56.04;100740.59;1808541;77;22250;-58
2021/05/27 01:01:16;;;;;;;8.75;7.85;;;;;;;19.13;56.01;100739.52;1834764;77;22152;-58
2021/05/27 01:04:03;;;;;;;8.75;6.87;;;;;;;18.95;56.21;100737.12;1767082;80;21198;-58
2021/05/27 01:06:36;;;;;;;6.53;5.37;;;;;;;19.09;55.91;100736.57;1822982;77;22589;-58
2021/05/27 01:09:09;;;;;;;6.65;5.85;;;;;;;19.05;56.00;100734.96;1806132;77;22178;-57
2021/05/27 01:11:42;;;;;;;7.50;6.80;;;;;;;18.89;56.31;100733.38;1853143;77;22174;-58
2021/05/27 01:17:17;;;;;;;8.03;7.00;;;;;;;18.94;56.18;100731.87;1849505;77;22166;-58
2021/05/27 01:19:52;;;;;;;8.18;7.37;;;;;;;18.95;56.26;100740.27;1834753;77;22615;-58
2021/05/27 01:22:25;;;;;;;8.40;7.45;;;;;;;18.94;56.43;100742.05;1829503;77;22626;-58
2021/05/27 01:25:13;;;;;;;9.78;8.35;;;;;;;18.10;58.58;100749.35;1755520;81;21099;-60
2021/05/27 01:27:46;;;;;;;11.08;9.08;;;;;;;18.87;57.23;100748.13;1824960;77;22174;-58
2021/05/27 01:30:20;;;;;;;11.40;10.25;;;;;;;18.97;57.05;100741.11;1853087;77;22179;-57
2021/05/27 01:32:53;;;;;;;13.55;11.45;;;;;;;18.99;57.30;100744.55;1839621;77;22193;-58
2021/05/27 01:35:39;;;;;;;12.40;11.08;;;;;;;18.93;57.62;100753.66;1790847;80;21629;-58
2021/05/27 01:38:18;;;;;;;14.83;10.28;;;;;;;18.96;57.79;100748.70;1818984;77;22585;-58
2021/05/27 01:40:53;;;;;;;12.07;10.85;;;;;;;19.04;57.92;100750.56;1819838;77;22177;-58
2021/05/27 01:47:33;;;;;;;11.00;9.90;;;;;;;19.13;58.26;100759.52;1826919;77;22225;-58
2021/05/27 01:50:20;;;;;;;13.22;10.85;;;;;;;19.12;58.33;100756.45;1853088;77;22131;-58
2021/05/27 01:53:04;;;;;;;11.20;10.00;;;;;;;19.05;58.57;100749.63;1751011;81;21162;-58
2021/05/27 01:55:43;;;;;;;10.10;8.98;;;;;;;19.08;58.42;100752.66;1853119;77;22174;-58
2021/05/27 01:58:18;;;;;;;8.83;7.92;;;;;;;19.09;58.46;100752.58;1831312;77;22188;-58
2021/05/27 02:00:52;;;;;;;8.20;7.40;;;;;;;19.10;58.47;100756.98;1843296;77;22618;-57
2021/05/27 02:03:25;;;;;;;8.18;7.08;;;;;;;18.99;59.06;100759.22;1816212;77;22190;-58
2021/05/27 02:05:58;;;;;;;7.12;6.42;;;;;;;19.13;58.69;100752.85;1850059;77;22562;-57
2021/05/27 02:11:45;;;;;;;8.55;7.67;;;;;;;19.09;58.76;100752.58;1834750;77;22183;-58
2021/05/27 02:25:41;;;;;;;7.90;7.03;;;;;;;19.07;58.13;100753.11;1842017;77;22144;-58
2021/05/27 02:28:14;;;;;;;8.90;8.10;;;;;;;19.06;58.08;100756.70;1818434;77;22186;-58
2021/05/27 03:42:43;;;;;;;4.05;3.65;;;;;;;19.67;66.67;100743.44;1826199;77;22198;-59
2021/05/27 03:45:24;;;;;;;4.37;3.30;;;;;;;19.86;65.99;100736.83;1809891;77;22134;-48
2021/05/27 03:47:58;;;;;;;3.80;2.92;;;;;;;19.99;65.37;100730.48;1816371;77;22687;-59
2021/05/27 03:50:33;;;;;;;3.90;2.65;;;;;;;20.14;64.81;100736.91;1834843;77;22610;-48
2021/05/27 03:53:22;;;;;;;4.33;2.80;;;;;;;20.24;64.19;100727.98;1770561;80;21155;-60
2021/05/27 03:55:55;;;;;;;3.75;2.87;;;;;;;20.39;63.65;100725.05;1834891;77;22183;-48
2021/05/27 04:01:20;;;;;;;3.58;2.60;;;;;;;20.52;62.97;100722.67;1820806;77;22158;-59
2021/05/27 04:07:16;;;;;;;7.67;2.52;;;;;;;20.57;62.65;100719.27;1825218;77;22254;-59
2021/05/27 04:09:48;;;;;;;3.10;2.60;;;;;;;20.68;62.52;100715.61;1834796;77;22594;-59
2021/05/27 04:15:21;;;;;;;5.10;3.42;;;;;;;20.86;62.55;100717.87;1834904;77;22144;-47
2021/05/27 04:18:05;;;;;;;45.08;39.92;;;;;;;20.97;63.21;100715.13;1807849;77;22501;-59
2021/05/27 04:20:41;;;;;;;67.37;60.33;;;;;;;21.17;63.29;100714.99;1813729;77;22151;-48
2021/05/27 04:26:01;;;;;;;48.13;43.15;;;;;;;21.55;64.03;100704.54;1852603;77;22119;-48
2021/05/27 04:28:36;;;;;;;29.92;27.00;;;;;;;21.83;64.06;100709.80;1826024;77;22573;-59
2021/05/27 04:31:24;;;;;;;20.12;17.90;;;;;;;21.94;63.70;100705.19;1793239;80;21126;-48
2021/05/27 04:33:57;;;;;;;14.87;13.53;;;;;;;22.18;63.47;100710.12;1820752;77;22217;-59
2021/05/27 04:36:31;;;;;;;10.95;9.85;;;;;;;21.51;65.22;100711.00;1835841;77;22138;-60
2021/05/27 04:39:05;;;;;;;6.83;6.22;;;;;;;21.42;65.97;100718.17;1819163;77;22158;-60
2021/05/27 04:41:38;;;;;;;7.00;5.83;;;;;;;21.45;65.67;100712.20;1828426;77;22190;-60
2021/05/27 04:44:31;;;;;;;5.10;4.60;;;;;;;21.53;65.75;100714.01;1818120;77;22257;-61
2021/05/27 04:47:05;;;;;;;4.85;4.45;;;;;;;21.62;66.24;100715.84;1816643;77;22664;-60
2021/05/27 04:49:58;;;;;;;4.83;4.12;;;;;;;21.78;66.61;100717.22;1825766;77;22239;-60
2021/05/27 04:52:31;;;;;;;4.25;3.85;;;;;;;21.90;66.68;100714.34;1808763;77;22208;-61
2021/05/27 04:55:07;;;;;;;4.83;4.42;;;;;;;22.02;66.50;100715.02;1816595;77;22158;-60
2021/05/27 04:57:40;;;;;;;5.87;5.05;;;;;;;22.20;66.49;100713.12;1790129;77;28055;-60
2021/05/27 05:00:20;;;;;;;4.80;4.30;;;;;;;22.46;65.45;100713.48;1827702;77;22181;-60
2021/05/27 05:05:32;;;;;;;4.33;3.35;;;;;;;22.64;64.14;100712.91;1819041;77;22176;-61
2021/05/27 05:08:06;;;;;;;4.65;3.52;;;;;;;22.71;64.33;100716.97;1814820;77;22190;-60
2021/05/27 05:10:42;;;;;;;4.17;3.20;;;;;;;22.83;63.89;100721.23;1835026;77;22176;-60
2021/05/27 05:13:14;;;;;;;3.50;3.20;;;;;;;22.87;63.53;100720.95;1830694;77;22170;-48
2021/05/27 05:16:00;;;;;;;3.22;2.92;;;;;;;22.91;63.69;100718.97;1786651;80;21138;-61
2021/05/27 05:18:34;;;;;;;3.55;2.55;;;;;;;23.18;63.63;100720.47;1808302;77;22190;-61
2021/05/27 05:21:26;;;;;;;4.28;3.00;;;;;;;23.41;62.24;100708.85;1826069;77;22211;-49
2021/05/27 05:24:19;;;;;;;3.90;2.95;;;;;;;23.47;62.11;100706.26;1898687;74;22144;-49
2021/05/27 05:26:52;;;;;;;3.60;3.02;;;;;;;23.56;60.94;100705.70;1807278;77;22198;-49
2021/05/27 05:29:25;;;;;;;5.78;4.08;;;;;;;23.67;60.51;100708.20;1853221;77;22179;-61
2021/05/27 05:31:59;;;;;;;3.70;3.30;;;;;;;23.87;61.35;100711.83;1847918;77;22596;-61
2021/05/27 05:37:36;;;;;;;7.65;5.08;;;;;;;24.26;58.52;100708.08;1821996;77;22190;-60
2021/05/27 05:40:18;;;;;;;5.05;3.80;;;;;;;24.39;58.27;100708.63;1853063;77;22203;-60
2021/05/27 05:42:59;;;;;;;3.75;3.02;;;;;;;24.60;57.15;100704.51;1803992;77;22236;-60
2021/05/27 05:45:34;;;;;;;4.75;3.00;;;;;;;24.70;54.24;100698.05;1810107;77;22182;-59
2021/05/27 05:48:10;;;;;;;3.47;2.90;;;;;;;24.88;55.15;100695.09;1794496;77;22222;-49
2021/05/27 05:53:23;;;;;;;4.58;3.37;;;;;;;25.31;52.46;100695.34;1790096;77;22199;-48
2021/05/27 05:55:57;;;;;;;6.30;3.75;;;;;;;25.30;52.41;100693.61;1847740;77;22574;-61
2021/05/27 05:58:30;;;;;;;5.50;3.30;;;;;;;25.37;53.30;100695.77;1808924;77;22190;-60
2021/05/27 06:01:04;;;;;;;4.75;3.12;;;;;;;25.56;52.03;100699.02;1833912;77;22215;-59
2021/05/27 06:03:39;;;;;;;5.35;3.10;;;;;;;25.65;51.25;100691.14;1791704;77;38355;-48
2021/05/27 06:06:13;;;;;;;5.00;3.20;;;;;;;25.73;49.32;100697.83;1834844;77;22203;-59
2021/05/27 06:08:46;;;;;;;6.40;3.50;;;;;;;25.75;49.51;100694.06;1822645;77;22178;-60
2021/05/27 06:11:19;;;;;;;10.08;3.47;;;;;;;25.99;49.51;100698.64;1829198;77;22554;-48
2021/05/27 06:13:54;;;;;;;6.37;3.58;;;;;;;26.21;50.33;100697.97;1803986;77;22583;-60
2021/05/27 06:16:27;;;;;;;7.15;3.87;;;;;;;26.55;49.67;100703.55;1834730;77;22681;-60
2021/05/27 06:19:00;;;;;;;8.23;3.45;;;;;;;26.81;49.03;100691.77;1817603;77;22154;-60
2021/05/27 06:21:34;;;;;;;5.45;3.45;;;;;;;26.99;48.62;100693.58;1820647;77;22606;-60
2021/05/27 06:24:08;;;;;;;4.78;2.87;;;;;;;27.17;48.12;100689.94;1834897;77;22203;-59
2021/05/27 06:26:42;;;;;;;4.28;2.70;;;;;;;27.32;45.79;100694.66;1833618;77;22180;-61
2021/05/27 06:29:15;;;;;;;3.67;2.45;;;;;;;27.42;43.47;100691.58;1819248;77;22144;-60
2021/05/27 06:31:48;;;;;;;7.50;3.10;;;;;;;27.48;44.08;100690.29;1832228;77;22179;-49
2021/05/27 06:34:21;;;;;;;4.17;2.65;;;;;;;27.54;44.29;100692.51;1834607;77;22163;-60
2021/05/27 06:36:55;;;;;;;3.95;2.85;;;;;;;27.77;42.76;100694.36;1829462;77;22168;-60
2021/05/27 06:39:29;;;;;;;6.12;3.80;;;;;;;27.87;42.20;100689.91;1808693;77;22151;-51
2021/05/27 06:42:02;;;;;;;5.33;3.17;;;;;;;27.99;42.04;100690.27;1842569;77;22191;-60
2021/05/27 06:44:37;;;;;;;3.95;3.10;;;;;;;28.12;40.69;100692.02;1820784;77;22185;-60
2021/05/27 06:47:10;;;;;;;3.20;2.60;;;;;;;28.17;39.48;100697.91;1814290;77;22592;-59
2021/05/27 06:49:44;;;;;;;4.30;2.70;;;;;;;28.15;39.30;100691.77;1817820;77;22144;-60
2021/05/27 06:52:19;;;;;;;3.20;2.60;;;;;;;28.38;40.32;100683.09;1810990;77;22195;-59
2021/05/27 06:54:53;;;;;;;3.60;2.40;;;;;;;28.54;38.49;100681.31;1834275;77;22183;-50
2021/05/27 06:57:26;;;;;;;5.45;2.45;;;;;;;28.53;38.63;100682.30;1811889;77;22206;-50
2021/05/27 07:00:21;;;;;;;2.70;2.20;;;;;;;28.43;38.13;100685.41;1830974;77;22522;-59
2021/05/27 07:02:56;;;;;;;3.27;2.27;;;;;;;28.35;38.06;100684.70;1834536;77;22195;-49
2021/05/27 07:05:30;;;;;;;5.05;2.15;;;;;;;28.31;38.29;100677.83;1814177;77;22159;-49
2021/05/27 07:08:07;;;;;;;4.83;2.00;;;;;;;28.27;37.33;100670.95;1815687;77;22164;-50
2021/05/27 07:10:41;;;;;;;4.00;2.10;;;;;;;28.25;35.94;100671.56;1829288;77;22124;-49
2021/05/27 07:13:16;;;;;;;3.25;2.22;;;;;;;28.26;36.01;100666.52;1796655;77;38659;-49
2021/05/27 07:15:51;;;;;;;3.25;2.30;;;;;;;28.27;36.28;100673.14;1827045;77;22590;-48
2021/05/27 07:18:24;;;;;;;3.83;2.30;;;;;;;28.26;37.05;100667.87;1796029;77;22166;-49
2021/05/27 07:20:57;;;;;;;2.50;2.30;;;;;;;28.34;36.37;100668.09;1821027;77;22185;-49
2021/05/27 07:23:31;;;;;;;2.35;1.87;;;;;;;28.44;36.09;100666.35;1783932;77;22232;-60
2021/05/27 07:26:07;;;;;;;3.95;2.10;;;;;;;28.61;35.67;100657.28;1823200;77;22570;-60
2021/05/27 07:28:42;;;;;;;4.85;2.40;;;;;;;28.60;35.70;100662.33;1786965;77;38336;-60
2021/05/27 07:31:16;;;;;;;3.72;1.87;;;;;;;28.78;36.73;100655.40;1834837;77;22180;-60
2021/05/27 07:34:05;;;;;;;2.47;1.92;;;;;;;28.99;36.08;100666.72;1761485;81;21675;-61
2021/05/27 07:36:39;;;;;;;2.87;2.25;;;;;;;29.18;35.82;100661.08;1804901;77;28340;-60
2021/05/27 07:39:12;;;;;;;2.60;2.00;;;;;;;29.16;35.64;100663.06;1805822;77;22194;-60
2021/05/27 07:41:58;;;;;;;2.80;2.37;;;;;;;29.06;36.64;100666.56;1781596;80;21135;-60
2021/05/27 07:44:31;;;;;;;2.55;2.00;;;;;;;28.96;36.51;100664.78;1818171;77;22181;-58
2021/05/27 07:47:05;;;;;;;3.52;2.30;;;;;;;28.80;37.43;100668.80;1814183;77;22199;-59
2021/05/27 07:49:40;;;;;;;3.65;2.50;;;;;;;28.83;37.29;100667.19;1810168;77;22186;-59
2021/05/27 07:52:14;;;;;;;3.62;2.25;;;;;;;29.02;37.52;100663.75;1826376;77;22187;-60
2021/05/27 07:54:48;;;;;;;3.10;2.05;;;;;;;29.18;37.15;100668.70;1834004;77;22140;-59
2021/05/27 07:57:23;;;;;;;4.35;2.50;;;;;;;29.44;36.42;100659.30;1824109;77;20400;-60
2021/05/27 08:00:13;;;;;;;3.50;2.10;;;;;;;29.65;36.78;100666.91;1761584;80;21106;-60
2021/05/27 08:02:48;;;;;;;2.70;1.90;;;;;;;30.00;34.48;100658.48;1837122;77;22162;-59
2021/05/27 08:05:21;;;;;;;2.30;1.90;;;;;;;30.18;34.09;100660.02;1834066;77;22120;-60
2021/05/27 08:07:55;;;;;;;2.75;1.72;;;;;;;30.31;32.39;100663.33;1790904;77;22552;-60
2021/05/27 08:10:29;;;;;;;4.75;2.00;;;;;;;30.37;33.10;100661.41;1820799;77;22167;-58
2021/05/27 08:13:02;;;;;;;19.50;3.15;;;;;;;30.64;32.74;100655.79;1814247;77;22179;-59
2021/05/27 08:15:36;;;;;;;2.77;1.77;;;;;;;30.59;32.74;100664.02;1834786;77;22653;-58
2021/05/27 08:18:11;;;;;;;3.00;2.27;;;;;;;30.44;32.48;100662.20;1813699;77;22203;-60
2021/05/27 08:20:45;;;;;;;2.33;1.70;;;;;;;30.30;33.02;100664.81;1853138;77;22178;-58
2021/05/27 08:23:19;;;;;;;3.62;2.37;;;;;;;30.29;32.97;100662.61;1811228;77;22634;-60
2021/05/27 08:25:53;;;;;;;1.67;1.57;;;;;;;30.11;32.69;100664.64;1830327;77;22190;-59
2021/05/27 08:28:26;;;;;;;3.60;1.60;;;;;;;29.97;33.33;100659.11;1803020;77;22158;-60
2021/05/27 08:31:05;;;;;;;3.67;1.72;;;;;;;29.78;33.13;100659.89;1834622;77;22184;-59
2021/05/27 08:33:40;;;;;;;5.30;2.05;;;;;;;29.70;34.08;100662.42;1764437;77;20126;-59
2021/05/27 08:36:15;;;;;;;2.75;1.80;;;;;;;29.59;34.47;100663.86;1853116;77;22179;-60
2021/05/27 08:39:03;;;;;;;3.30;1.60;;;;;;;29.43;34.38;100664.36;1793087;80;21127;-60
2021/05/27 08:41:41;;;;;;;4.47;1.50;;;;;;;29.56;34.16;100660.10;1834331;77;22203;-60
2021/05/27 08:44:16;;;;;;;1.98;1.30;;;;;;;29.60;33.00;100663.75;1824242;77;22153;-59
2021/05/27 08:46:51;;;;;;;3.77;1.72;;;;;;;29.57;33.24;100660.46;1810127;77;22147;-60
2021/05/27 08:49:26;;;;;;;2.80;1.82;;;;;;;29.53;34.03;100653.08;1853164;77;22148;-60
2021/05/27 08:52:00;;;;;;;2.80;1.95;;;;;;;29.65;35.29;100666.91;1832166;77;22181;-59
2021/05/27 08:54:33;;;;;;;4.83;2.02;;;;;;;29.81;35.38;100662.80;1834820;77;22179;-58
2021/05/27 08:57:07;;;;;;;2.15;1.60;;;;;;;30.10;35.44;100659.37;1833506;77;22216;-59
2021/05/27 08:59:41;;;;;;;2.70;1.90;;;;;;;30.41;34.44;100657.41;1834879;77;22645;-59
2021/05/27 09:02:14;;;;;;;18.90;3.02;;;;;;;30.62;33.85;100652.88;1822155;77;22202;-59
2021/05/27 09:04:47;;;;;;;5.78;2.70;;;;;;;30.59;33.72;100658.59;1853087;77;22215;-58
2021/05/27 09:07:25;;;;;;;2.42;1.80;;;;;;;30.75;33.84;100653.93;1842925;77;22158;-58
2021/05/27 09:10:13;;;;;;;2.22;1.70;;;;;;;30.88;33.66;100650.42;1732710;80;21135;-59
2021/05/27 09:12:47;;;;;;;3.20;2.02;;;;;;;31.12;33.11;100654.03;1803204;77;28352;-59
2021/05/27 09:15:25;;;;;;;2.45;1.80;;;;;;;30.95;32.55;100660.20;1834601;77;22183;-58
2021/05/27 09:17:59;;;;;;;2.60;1.60;;;;;;;30.85;32.20;100653.43;1815042;77;22178;-59
2021/05/27 09:20:45;;;;;;;2.05;1.65;;;;;;;30.93;30.46;100658.97;1761980;81;21718;-59
2021/05/27 09:23:22;;;;;;;3.05;1.57;;;;;;;31.07;30.19;100644.58;1829318;77;22620;-59
2021/05/27 09:26:13;;;;;;;1.80;1.30;;;;;;;31.26;28.98;100649.13;1834747;77;22183;-58
2021/05/27 09:28:48;;;;;;;2.40;1.50;;;;;;;31.33;28.76;100646.19;1821493;77;22173;-58
2021/05/27 09:31:24;;;;;;;3.47;1.72;;;;;;;31.37;29.78;100647.61;1810598;77;22659;-57
2021/05/27 09:34:04;;;;;;;1.82;1.30;;;;;;;31.54;28.82;100649.20;1820865;77;22161;-58
2021/05/27 09:36:38;;;;;;;4.28;1.57;;;;;;;31.56;28.51;100640.39;1852555;77;22127;-59
2021/05/27 09:39:11;;;;;;;3.33;1.65;;;;;;;31.69;27.85;100644.95;1848729;77;22178;-57
2021/05/27 09:41:45;;;;;;;2.67;1.62;;;;;;;31.70;27.05;100643.11;1816618;77;22168;-58
2021/05/27 09:44:19;;;;;;;4.37;1.75;;;;;;;31.65;27.97;100633.17;1824164;77;22171;-57
2021/05/27 09:46:55;;;;;;;2.58;1.42;;;;;;;31.78;28.10;100636.93;1816333;77;22198;-58
2021/05/27 09:49:31;;;;;;;2.75;1.60;;;;;;;31.91;27.81;100627.91;1806206;77;22210;-58
2021/05/27 09:52:16;;;;;;;3.92;2.08;;;;;;;32.09;28.56;100622.48;1825228;77;20147;-50
2021/05/27 09:54:58;;;;;;;3.85;1.50;;;;;;;32.37;28.46;100620.23;1853078;77;22128;-50
2021/05/27 09:57:32;;;;;;;2.15;1.32;;;;;;;32.52;27.56;100613.20;1822248;77;22175;-51
2021/05/27 10:00:07;;;;;;;2.33;1.45;;;;;;;32.71;28.11;100614.05;1810537;77;22158;-51
2021/05/27 10:02:41;;;;;;;4.45;2.30;;;;;;;32.81;28.57;100612.58;1804583;77;28044;-50
2021/05/27 10:05:14;;;;;;;2.47;1.90;;;;;;;32.99;28.15;100607.98;1834694;77;22208;-50
2021/05/27 10:07:53;;;;;;;3.20;1.90;;;;;;;33.12;28.18;100604.81;1835749;77;22612;-50
2021/05/27 10:10:27;;;;;;;2.92;1.57;;;;;;;33.22;28.95;100603.33;1853091;77;22127;-50
2021/05/27 10:13:06;;;;;;;2.90;1.87;;;;;;;33.32;27.95;100608.16;1815788;77;22198;-50
2021/05/27 10:15:43;;;;;;;2.90;2.08;;;;;;;33.19;27.93;100604.52;1834738;77;22176;-51
2021/05/27 10:18:18;;;;;;;3.08;1.72;;;;;;;33.22;28.66;100599.23;1809579;77;22179;-50
2021/05/27 10:20:51;;;;;;;2.20;1.57;;;;;;;33.39;28.42;100598.84;1836957;77;22161;-50
2021/05/27 10:23:25;;;;;;;2.98;1.57;;;;;;;33.54;27.99;100595.50;1803569;77;22616;-50
2021/05/27 10:25:59;;;;;;;2.55;1.42;;;;;;;33.64;28.13;100593.50;1834546;77;22606;-51
2021/05/27 10:28:34;;;;;;;1.57;1.47;;;;;;;33.96;26.55;100591.91;1795801;77;22194;-51
2021/05/27 10:31:08;;;;;;;4.33;1.70;;;;;;;33.99;26.46;100592.09;1834710;77;22180;-50
2021/05/27 10:33:42;;;;;;;6.40;1.90;;;;;;;34.21;26.45;100591.95;1824184;77;22190;-50
2021/05/27 10:36:15;;;;;;;38.92;4.37;;;;;;;34.21;26.24;100586.50;1834692;77;22235;-51
2021/05/27 10:38:51;;;;;;;10.32;2.10;;;;;;;34.39;26.28;100580.87;1804852;77;22150;-50
2021/05/27 10:41:35;;;;;;;3.30;1.92;;;;;;;34.40;26.56;100586.14;1819132;77;27985;-51
2021/05/27 10:44:14;;;;;;;2.92;1.95;;;;;;;34.43;25.85;100582.23;1853047;77;22155;-50
2021/05/27 10:46:55;;;;;;;3.12;1.75;;;;;;;34.38;27.01;100580.52;1832314;77;22559;-50
2021/05/27 10:49:48;;;;;;;2.37;1.42;;;;;;;34.43;27.39;100574.53;1820510;77;22161;-51
2021/05/27 10:52:33;;;;;;;3.17;1.57;;;;;;;34.58;27.04;100574.72;1809682;77;22178;-51
2021/05/27 10:55:28;;;;;;;2.62;1.65;;;;;;;34.81;27.03;100578.47;1820319;77;22128;-50
2021/05/27 10:58:01;;;;;;;3.00;1.65;;;;;;;34.96;27.28;100574.53;1827683;77;22163;-51
2021/05/27 11:00:49;;;;;;;6.25;1.87;;;;;;;35.03;27.14;100570.57;1792784;80;21155;-51
2021/05/27 11:06:40;;;;;;;3.02;2.10;;;;;;;35.26;27.09;100562.99;1833203;77;22703;-50
2021/05/27 11:09:24;;;;;;;4.15;1.60;;;;;;;35.31;26.66;100561.08;1826324;77;22569;-50
2021/05/27 11:12:12;;;;;;;4.78;1.80;;;;;;;35.30;26.09;100561.61;1824109;77;22197;-50
2021/05/27 11:15:06;;;;;;;3.42;1.67;;;;;;;35.26;24.91;100553.42;1834768;77;22148;-51
2021/05/27 11:17:39;;;;;;;6.35;1.82;;;;;;;35.19;25.53;100557.88;1831277;77;22207;-51
2021/05/27 11:20:29;;;;;;;2.92;1.70;;;;;;;34.96;25.10;100556.76;1770453;80;21596;-51
2021/05/27 11:23:11;;;;;;;2.75;1.50;;;;;;;34.83;25.74;100555.91;1831688;77;22197;-51
2021/05/27 11:25:45;;;;;;;3.83;1.70;;;;;;;35.10;25.40;100553.80;1848894;77;20277;-51
2021/05/27 11:28:22;;;;;;;2.47;1.80;;;;;;;35.65;24.17;100542.98;1829577;77;22193;-50
2021/05/27 11:30:57;;;;;;;2.62;1.65;;;;;;;35.95;23.94;100540.38;1834771;77;22152;-50
2021/05/27 11:33:44;;;;;;;2.72;1.60;;;;;;;35.93;24.04;100541.62;1765677;80;21174;-51
2021/05/27 11:36:25;;;;;;;2.25;1.60;;;;;;;36.08;23.95;100534.33;1832674;77;22139;-51
2021/05/27 11:38:59;;;;;;;2.17;1.70;;;;;;;36.41;23.72;100534.06;1819839;77;22189;-51
2021/05/27 11:41:33;;;;;;;2.77;1.52;;;;;;;36.56;23.51;100530.51;1853091;77;22131;-50
2021/05/27 11:44:09;;;;;;;2.00;1.80;;;;;;;36.41;23.37;100531.83;1853098;77;22575;-50
2021/05/27 11:46:56;;;;;;;3.67;1.70;;;;;;;36.37;24.05;100523.64;1753109;81;21146;-52
2021/05/27 11:49:30;;;;;;;2.20;1.65;;;;;;;37.02;23.36;100521.31;1834816;77;22183;-50
2021/05/27 11:52:05;;;;;;;4.67;1.90;;;;;;;37.49;24.78;100515.05;1828735;77;22198;-50
2021/05/27 11:54:39;;;;;;;3.50;1.70;;;;;;;38.24;23.46;100513.39;1819135;77;27966;-50
2021/05/27 11:57:14;;;;;;;4.00;2.08;;;;;;;38.49;22.21;100511.59;1801678;77;22642;-50
2021/05/27 12:00:02;;;;;;;13.95;2.45;;;;;;;38.61;21.96;100511.91;1828225;77;22194;-51
2021/05/27 12:02:48;;;;;;;3.47;1.65;;;;;;;38.41;21.52;100511.23;1809451;77;22187;-59
2021/05/27 12:05:26;;;;;;;2.15;1.70;;;;;;;37.83;21.73;100504.44;1812942;77;28392;-59
2021/05/27 12:08:08;;;;;;;2.92;1.62;;;;;;;37.66;22.15;100505.22;1830078;77;22183;-59
2021/05/27 12:10:47;;;;;;;3.17;1.90;;;;;;;37.47;22.24;100502.91;1834684;77;22164;-59
2021/05/27 12:13:23;;;;;;;3.45;1.90;;;;;;;37.43;22.77;100501.56;1811318;77;22170;-59
2021/05/27 12:15:57;;;;;;;3.00;1.70;;;;;;;36.89;22.72;100499.98;1834200;77;22204;-59
2021/05/27 12:18:44;;;;;;;1.57;1.47;;;;;;;36.69;23.26;100500.56;1701389;83;21180;-59
2021/05/27 12:21:18;;;;;;;4.67;2.08;;;;;;;36.75;22.73;100486.11;1834708;77;22212;-58
2021/05/27 12:23:53;;;;;;;1.72;1.60;;;;;;;35.90;24.38;100494.90;1820504;77;22182;-60
2021/05/27 12:26:28;;;;;;;2.80;1.70;;;;;;;35.49;25.10;100486.97;1834714;77;22179;-59
2021/05/27 12:29:01;;;;;;;2.33;1.60;;;;;;;34.73;26.39;100495.61;1819748;77;22648;-58
2021/05/27 12:31:34;;;;;;;3.08;1.65;;;;;;;34.90;27.07;100487.71;1834821;77;22179;-59
2021/05/27 12:34:08;;;;;;;3.35;1.75;;;;;;;36.19;26.58;100478.78;1806482;77;22186;-58
2021/05/27 12:36:59;;;;;;;4.10;1.85;;;;;;;37.00;23.51;100476.23;1833571;77;22180;-59
2021/05/27 12:39:39;;;;;;;4.90;1.90;;;;;;;37.05;23.56;100478.42;1834750;77;22132;-59
2021/05/27 12:42:13;;;;;;;3.92;1.80;;;;;;;36.95;23.37;100470.97;1826603;77;22609;-59
2021/05/27 12:44:47;;;;;;;3.98;1.60;;;;;;;36.68;23.06;100474.20;1834735;77;22632;-58
2021/05/27 12:47:21;;;;;;;5.97;1.98;;;;;;;36.51;23.00;100462.56;1801831;77;28050;-60
2021/05/27 12:49:56;;;;;;;4.28;1.50;;;;;;;36.47;23.55;100465.34;1824745;77;22171;-59
2021/05/27 12:52:40;;;;;;;2.35;1.50;;;;;;;36.30;23.90;100468.75;1821972;77;22498;-59
2021/05/27 12:55:14;;;;;;;42.03;4.05;;;;;;;36.28;23.64;100464.80;1837707;77;22623;-59
2021/05/27 12:57:54;;;;;;;17.45;2.40;;;;;;;36.21;23.90;100465.21;1818722;77;22170;-59
2021/05/27 13:00:28;;;;;;;6.00;1.95;;;;;;;36.10;24.12;100468.42;1834756;77;22144;-59
2021/05/27 13:03:05;;;;;;;3.75;1.60;;;;;;;35.80;24.22;100463.67;1797737;77;22616;-58
2021/05/27 13:05:39;;;;;;;3.75;1.75;;;;;;;35.66;24.46;100461.71;1816011;77;22186;-58
2021/05/27 13:08:14;;;;;;;3.12;1.80;;;;;;;35.69;24.78;100453.14;1813141;77;22589;-59
2021/05/27 13:10:47;;;;;;;4.30;1.95;;;;;;;35.56;24.85;100451.85;1830764;77;22645;-51
2021/05/27 13:13:33;;;;;;;2.33;1.52;;;;;;;35.33;25.53;100458.64;1829005;77;22169;-58
2021/05/27 13:16:06;;;;;;;3.40;1.90;;;;;;;35.21;25.00;100451.89;1834769;77;22120;-58
2021/05/27 13:18:53;;;;;;;5.50;2.00;;;;;;;35.12;25.63;100456.53;1728421;82;21191;-60
2021/05/27 13:21:40;;;;;;;2.70;1.40;;;;;;;35.17;25.21;100451.38;1818686;77;22214;-59
2021/05/27 13:24:28;;;;;;;2.35;1.55;;;;;;;35.17;24.29;100448.64;1834747;77;22136;-59
2021/05/27 13:30:07;;;;;;;3.52;1.80;;;;;;;35.16;24.76;100444.73;1829987;77;22705;-59
2021/05/27 13:32:43;;;;;;;2.22;1.80;;;;;;;34.82;24.97;100448.97;1820279;77;22590;-59
2021/05/27 13:35:30;;;;;;;3.90;1.65;;;;;;;34.45;25.50;100449.05;1762008;81;21534;-59
2021/05/27 13:38:05;;;;;;;4.25;1.57;;;;;;;34.19;26.28;100445.17;1814860;77;22167;-58
2021/05/27 13:40:38;;;;;;;2.85;2.20;;;;;;;34.09;26.74;100445.33;1829001;77;22136;-59
2021/05/27 13:43:12;;;;;;;2.25;1.52;;;;;;;34.09;26.32;100443.47;1813302;77;22637;-58
2021/05/27 13:45:45;;;;;;;2.55;1.60;;;;;;;34.01;26.25;100446.20;1833766;77;22184;-58
2021/05/27 13:48:20;;;;;;;5.80;1.90;;;;;;;33.83;26.88;100434.05;1809249;77;22594;-58
2021/05/27 13:50:53;;;;;;;4.37;1.70;;;;;;;33.89;27.14;100444.80;1834721;77;22649;-58
2021/05/27 13:53:26;;;;;;;3.17;1.50;;;;;;;33.71;26.50;100442.23;1809855;77;22190;-58
2021/05/27 13:56:04;;;;;;;2.22;1.47;;;;;;;33.52;26.42;100447.00;1834817;77;22180;-56
2021/05/27 13:58:38;;;;;;;41.05;4.95;;;;;;;33.24;27.38;100440.41;1825052;77;22692;-56
2021/05/27 14:01:11;;;;;;;2.72;1.52;;;;;;;33.01;27.59;100442.40;1834755;77;22180;-56
2021/05/27 14:03:46;;;;;;;5.28;2.08;;;;;;;32.70;27.82;100444.25;1805863;77;22215;-57
2021/05/27 14:06:19;;;;;;;4.15;1.70;;;;;;;32.45;28.33;100444.13;1834732;77;22179;-56
2021/05/27 14:08:53;;;;;;;3.30;1.67;;;;;;;32.25;28.50;100442.09;1787976;77;22207;-57